sensor_id;sensor_type;location;lat;lon;timestamp;pressure;altitude;pressure_sealevel;temperature;humidity
83140;BME280;73027;54.208;19.128;2023-12-28T00:01:49;101762.78;;;3.50;69.25
83140;BME280;73027;54.208;19.128;2023-12-28T00:04:15;101765.56;;;3.70;69.01
83140;BME280;73027;54.208;19.128;2023-12-28T00:06:41;101752.06;;;3.81;68.89
83140;BME280;73027;54.208;19.128;2023-12-28T00:09:07;101741.13;;;3.93;69.13
83140;BME280;73027;54.208;19.128;2023-12-28T00:11:33;101732.69;;;4.02;68.35
83140;BME280;73027;54.208;19.128;2023-12-28T00:13:58;101732.78;;;4.09;67.85
83140;BME280;73027;54.208;19.128;2023-12-28T00:16:24;101724.28;;;4.10;67.65
83140;BME280;73027;54.208;19.128;2023-12-28T00:18:49;101731.94;;;4.13;67.24
83140;BME280;73027;54.208;19.128;2023-12-28T00:21:15;101730.25;;;4.12;67.45
83140;BME280;73027;54.208;19.128;2023-12-28T00:23:40;101714.94;;;4.14;67.37
83140;BME280;73027;54.208;19.128;2023-12-28T00:26:06;101702.19;;;4.11;67.21
83140;BME280;73027;54.208;19.128;2023-12-28T00:28:31;101705.63;;;4.13;67.05
83140;BME280;73027;54.208;19.128;2023-12-28T00:30:56;101697.09;;;4.09;67.40
83140;BME280;73027;54.208;19.128;2023-12-28T00:33:22;101688.53;;;4.03;67.66
83140;BME280;73027;54.208;19.128;2023-12-28T00:35:47;101676.63;;;4.03;67.10
83140;BME280;73027;54.208;19.128;2023-12-28T00:38:13;101674.97;;;4.07;67.01
83140;BME280;73027;54.208;19.128;2023-12-28T00:40:38;101675.75;;;4.00;67.49
83140;BME280;73027;54.208;19.128;2023-12-28T00:43:04;101672.31;;;3.95;67.38
83140;BME280;73027;54.208;19.128;2023-12-28T00:45:29;101669.75;;;3.92;66.98
83140;BME280;73027;54.208;19.128;2023-12-28T00:47:54;101675.69;;;3.92;67.03
83140;BME280;73027;54.208;19.128;2023-12-28T00:50:22;101672.28;;;3.90;67.79
83140;BME280;73027;54.208;19.128;2023-12-28T00:52:47;101664.59;;;3.87;67.90
83140;BME280;73027;54.208;19.128;2023-12-28T00:55:13;101670.63;;;3.95;67.23
83140;BME280;73027;54.208;19.128;2023-12-28T00:57:38;101661.25;;;3.90;67.54
83140;BME280;73027;54.208;19.128;2023-12-28T01:00:04;101677.47;;;4.01;68.18
83140;BME280;73027;54.208;19.128;2023-12-28T01:02:29;101665.59;;;4.01;67.52
83140;BME280;73027;54.208;19.128;2023-12-28T01:04:55;101656.25;;;4.05;67.35
83140;BME280;73027;54.208;19.128;2023-12-28T01:07:20;101646.88;;;4.02;68.13
83140;BME280;73027;54.208;19.128;2023-12-28T01:09:46;101665.59;;;4.01;67.30
83140;BME280;73027;54.208;19.128;2023-12-28T01:12:11;101659.63;;;4.02;67.79
83140;BME280;73027;54.208;19.128;2023-12-28T01:14:36;101651.16;;;4.03;67.77
83140;BME280;73027;54.208;19.128;2023-12-28T01:17:02;101650.28;;;4.03;67.54
83140;BME280;73027;54.208;19.128;2023-12-28T01:19:27;101646.88;;;4.02;68.04
83140;BME280;73027;54.208;19.128;2023-12-28T01:21:53;101646.09;;;4.08;67.87
83140;BME280;73027;54.208;19.128;2023-12-28T01:24:18;101635.06;;;4.09;67.81
83140;BME280;73027;54.208;19.128;2023-12-28T01:26:43;101621.38;;;4.02;67.48
83140;BME280;73027;54.208;19.128;2023-12-28T01:29:10;101627.41;;;4.09;68.08
83140;BME280;73027;54.208;19.128;2023-12-28T01:31:35;101624.03;;;4.13;68.21
83140;BME280;73027;54.208;19.128;2023-12-28T01:34:01;101610.38;;;4.08;68.24
83140;BME280;73027;54.208;19.128;2023-12-28T01:36:26;101615.44;;;4.02;67.91
83140;BME280;73027;54.208;19.128;2023-12-28T01:38:54;101623.97;;;4.04;68.36
83140;BME280;73027;54.208;19.128;2023-12-28T01:41:20;101618.00;;;4.06;67.94
83140;BME280;73027;54.208;19.128;2023-12-28T01:43:45;101612.13;;;4.12;68.44
83140;BME280;73027;54.208;19.128;2023-12-28T01:46:16;101598.50;;;4.10;67.77
83140;BME280;73027;54.208;19.128;2023-12-28T01:48:44;101595.09;;;4.05;67.83
83140;BME280;73027;54.208;19.128;2023-12-28T01:51:11;101606.13;;;4.05;67.96
83140;BME280;73027;54.208;19.128;2023-12-28T01:53:37;101595.91;;;4.02;67.77
83140;BME280;73027;54.208;19.128;2023-12-28T01:56:03;101578.88;;;3.98;68.28
83140;BME280;73027;54.208;19.128;2023-12-28T01:58:30;101569.53;;;3.99;68.07
83140;BME280;73027;54.208;19.128;2023-12-28T02:00:56;101570.41;;;3.98;67.70
83140;BME280;73027;54.208;19.128;2023-12-28T02:03:22;101553.38;;;3.95;67.98
83140;BME280;73027;54.208;19.128;2023-12-28T02:05:48;101556.78;;;3.93;67.82
83140;BME280;73027;54.208;19.128;2023-12-28T02:08:13;101552.50;;;3.89;68.04
83140;BME280;73027;54.208;19.128;2023-12-28T02:10:39;101552.50;;;3.89;68.20
83140;BME280;73027;54.208;19.128;2023-12-28T02:13:05;101519.34;;;3.86;68.48
83140;BME280;73027;54.208;19.128;2023-12-28T02:15:30;101494.69;;;3.83;68.35
83140;BME280;73027;54.208;19.128;2023-12-28T02:18:01;101485.34;;;3.77;68.21
83140;BME280;73027;54.208;19.128;2023-12-28T02:20:29;101464.00;;;3.63;68.51
83140;BME280;73027;54.208;19.128;2023-12-28T02:22:56;101467.44;;;3.65;69.12
83140;BME280;73027;54.208;19.128;2023-12-28T02:25:22;101471.66;;;3.65;68.91
83140;BME280;73027;54.208;19.128;2023-12-28T02:27:48;101465.72;;;3.63;69.14
83140;BME280;73027;54.208;19.128;2023-12-28T02:30:20;101464.81;;;3.59;69.25
83140;BME280;73027;54.208;19.128;2023-12-28T02:35:29;101457.19;;;3.59;69.25
83140;BME280;73027;54.208;19.128;2023-12-28T02:37:56;101448.69;;;3.57;69.31
83140;BME280;73027;54.208;19.128;2023-12-28T02:40:23;101438.53;;;3.59;69.55
83140;BME280;73027;54.208;19.128;2023-12-28T02:42:50;101443.63;;;3.65;69.46
83140;BME280;73027;54.208;19.128;2023-12-28T02:45:17;101432.59;;;3.63;69.35
83140;BME280;73027;54.208;19.128;2023-12-28T02:47:43;101424.94;;;3.61;69.50
83140;BME280;73027;54.208;19.128;2023-12-28T02:50:10;101401.13;;;3.59;69.69
83140;BME280;73027;54.208;19.128;2023-12-28T02:52:35;101396.91;;;3.55;69.60
83140;BME280;73027;54.208;19.128;2023-12-28T02:55:01;101373.94;;;3.49;69.97
83140;BME280;73027;54.208;19.128;2023-12-28T02:57:26;101386.69;;;3.52;69.80
83140;BME280;73027;54.208;19.128;2023-12-28T02:59:52;101369.69;;;3.47;70.22
83140;BME280;73027;54.208;19.128;2023-12-28T03:02:17;101377.28;;;3.41;70.26
83140;BME280;73027;54.208;19.128;2023-12-28T03:04:42;101370.50;;;3.44;70.73
83140;BME280;73027;54.208;19.128;2023-12-28T03:07:08;101376.47;;;3.46;70.58
83140;BME280;73027;54.208;19.128;2023-12-28T03:09:33;101356.94;;;3.44;70.83
83140;BME280;73027;54.208;19.128;2023-12-28T03:12:00;101341.66;;;3.45;71.14
83140;BME280;73027;54.208;19.128;2023-12-28T03:14:25;101339.13;;;3.47;70.79
83140;BME280;73027;54.208;19.128;2023-12-28T03:16:51;101331.47;;;3.45;70.76
83140;BME280;73027;54.208;19.128;2023-12-28T03:19:16;101323.00;;;3.46;70.72
83140;BME280;73027;54.208;19.128;2023-12-28T03:21:42;101316.19;;;3.42;71.21
83140;BME280;73027;54.208;19.128;2023-12-28T03:24:08;101304.28;;;3.38;71.31
83140;BME280;73027;54.208;19.128;2023-12-28T03:26:38;101314.50;;;3.46;71.75
83140;BME280;73027;54.208;19.128;2023-12-28T03:29:05;101314.50;;;3.46;71.42
83140;BME280;73027;54.208;19.128;2023-12-28T03:31:32;101310.25;;;3.45;71.58
83140;BME280;73027;54.208;19.128;2023-12-28T03:33:57;101302.56;;;3.37;71.90
83140;BME280;73027;54.208;19.128;2023-12-28T03:36:23;101307.69;;;3.39;71.66
83140;BME280;73027;54.208;19.128;2023-12-28T03:38:49;101294.13;;;3.40;71.90
83140;BME280;73027;54.208;19.128;2023-12-28T03:41:20;101283.06;;;3.41;72.31
83140;BME280;73027;54.208;19.128;2023-12-28T03:43:47;101282.25;;;3.43;72.02
83140;BME280;73027;54.208;19.128;2023-12-28T03:46:12;101281.41;;;3.47;72.00
83140;BME280;73027;54.208;19.128;2023-12-28T03:48:38;101266.13;;;3.52;72.08
83140;BME280;73027;54.208;19.128;2023-12-28T03:51:04;101266.13;;;3.56;71.93
83140;BME280;73027;54.208;19.128;2023-12-28T03:53:30;101250.00;;;3.53;72.01
83140;BME280;73027;54.208;19.128;2023-12-28T03:55:59;101246.63;;;3.55;71.99
83140;BME280;73027;54.208;19.128;2023-12-28T03:58:24;101235.56;;;3.56;71.78
83140;BME280;73027;54.208;19.128;2023-12-28T04:00:50;101238.13;;;3.58;72.26
83140;BME280;73027;54.208;19.128;2023-12-28T04:03:15;101234.72;;;3.60;72.07
83140;BME280;73027;54.208;19.128;2023-12-28T04:05:40;101220.31;;;3.61;71.74
83140;BME280;73027;54.208;19.128;2023-12-28T04:08:07;101210.09;;;3.59;71.81
83140;BME280;73027;54.208;19.128;2023-12-28T04:10:33;101220.31;;;3.62;71.87
83140;BME280;73027;54.208;19.128;2023-12-28T04:12:59;101209.25;;;3.60;71.94
83140;BME280;73027;54.208;19.128;2023-12-28T04:15:25;101217.78;;;3.73;71.66
83140;BME280;73027;54.208;19.128;2023-12-28T04:17:51;101213.56;;;3.81;71.30
83140;BME280;73027;54.208;19.128;2023-12-28T04:20:16;101211.84;;;3.81;71.50
83140;BME280;73027;54.208;19.128;2023-12-28T04:22:42;101216.09;;;3.87;71.17
83140;BME280;73027;54.208;19.128;2023-12-28T04:25:09;101199.97;;;3.88;71.02
83140;BME280;73027;54.208;19.128;2023-12-28T04:27:34;101181.28;;;3.89;71.15
83140;BME280;73027;54.208;19.128;2023-12-28T04:30:00;101166.84;;;3.90;71.13
83140;BME280;73027;54.208;19.128;2023-12-28T04:32:25;101161.75;;;3.97;70.92
83140;BME280;73027;54.208;19.128;2023-12-28T04:34:51;101145.56;;;3.98;71.02
83140;BME280;73027;54.208;19.128;2023-12-28T04:37:16;101129.44;;;4.01;70.47
83140;BME280;73027;54.208;19.128;2023-12-28T04:39:42;101108.19;;;3.99;70.74
83140;BME280;73027;54.208;19.128;2023-12-28T04:42:07;101098.84;;;3.95;70.49
83140;BME280;73027;54.208;19.128;2023-12-28T04:44:37;101087.84;;;3.93;70.75
83140;BME280;73027;54.208;19.128;2023-12-28T04:47:04;101097.19;;;3.97;70.45
83140;BME280;73027;54.208;19.128;2023-12-28T04:49:29;101098.88;;;3.93;70.48
83140;BME280;73027;54.208;19.128;2023-12-28T04:51:54;101090.34;;;3.99;70.36
83140;BME280;73027;54.208;19.128;2023-12-28T04:54:21;101084.41;;;3.95;70.55
83140;BME280;73027;54.208;19.128;2023-12-28T04:56:46;101077.63;;;3.97;70.48
83140;BME280;73027;54.208;19.128;2023-12-28T04:59:12;101069.97;;;3.94;70.52
83140;BME280;73027;54.208;19.128;2023-12-28T05:01:43;101084.41;;;3.91;70.01
83140;BME280;73027;54.208;19.128;2023-12-28T05:04:10;101074.25;;;3.92;70.23
83140;BME280;73027;54.208;19.128;2023-12-28T05:06:35;101064.91;;;3.90;70.57
83140;BME280;73027;54.208;19.128;2023-12-28T05:09:01;101041.09;;;3.95;70.43
83140;BME280;73027;54.208;19.128;2023-12-28T05:11:27;101038.56;;;3.97;69.95
83140;BME280;73027;54.208;19.128;2023-12-28T05:13:52;101028.38;;;3.97;70.24
83140;BME280;73027;54.208;19.128;2023-12-28T05:16:19;101030.03;;;4.02;70.47
83140;BME280;73027;54.208;19.128;2023-12-28T05:18:44;101012.22;;;4.01;70.19
83140;BME280;73027;54.208;19.128;2023-12-28T05:21:09;101007.94;;;4.03;70.36
83140;BME280;73027;54.208;19.128;2023-12-28T05:23:35;101014.75;;;3.99;69.78
83140;BME280;73027;54.208;19.128;2023-12-28T05:26:00;101002.91;;;3.84;69.82
83140;BME280;73027;54.208;19.128;2023-12-28T05:28:26;101019.88;;;3.84;70.02
83140;BME280;73027;54.208;19.128;2023-12-28T05:30:51;101023.28;;;3.88;70.50
83140;BME280;73027;54.208;19.128;2023-12-28T05:33:18;100998.63;;;3.87;70.75
83140;BME280;73027;54.208;19.128;2023-12-28T05:35:44;100980.81;;;3.90;70.53
83140;BME280;73027;54.208;19.128;2023-12-28T05:38:09;100971.47;;;3.89;70.18
83140;BME280;73027;54.208;19.128;2023-12-28T05:40:35;100966.34;;;3.99;70.24
83140;BME280;73027;54.208;19.128;2023-12-28T05:43:00;100942.53;;;4.03;70.15
83140;BME280;73027;54.208;19.128;2023-12-28T05:45:26;100959.47;;;4.15;69.64
83140;BME280;73027;54.208;19.128;2023-12-28T05:47:51;100972.22;;;4.10;69.41
83140;BME280;73027;54.208;19.128;2023-12-28T05:50:16;100975.66;;;4.05;69.34
83140;BME280;73027;54.208;19.128;2023-12-28T05:52:42;100974.81;;;4.00;69.69
83140;BME280;73027;54.208;19.128;2023-12-28T05:55:07;100976.53;;;3.95;69.72
83140;BME280;73027;54.208;19.128;2023-12-28T05:57:33;100964.66;;;3.91;69.92
83140;BME280;73027;54.208;19.128;2023-12-28T05:59:58;100940.91;;;3.86;69.94
83140;BME280;73027;54.208;19.128;2023-12-28T06:02:24;100942.63;;;3.82;70.10
83140;BME280;73027;54.208;19.128;2023-12-28T06:04:49;100949.41;;;3.75;70.14
83140;BME280;73027;54.208;19.128;2023-12-28T06:07:14;100957.94;;;3.70;70.06
83140;BME280;73027;54.208;19.128;2023-12-28T06:09:40;100993.59;;;3.70;71.00
83140;BME280;73027;54.208;19.128;2023-12-28T06:12:06;101006.38;;;3.55;70.85
83140;BME280;73027;54.208;19.128;2023-12-28T06:14:31;100997.03;;;3.45;71.77
83140;BME280;73027;54.208;19.128;2023-12-28T06:16:56;100991.94;;;3.46;72.16
83140;BME280;73027;54.208;19.128;2023-12-28T06:19:22;100983.44;;;3.46;71.79
83140;BME280;73027;54.208;19.128;2023-12-28T06:21:50;100961.38;;;3.45;72.57
83140;BME280;73027;54.208;19.128;2023-12-28T06:24:16;100964.75;;;3.48;72.25
83140;BME280;73027;54.208;19.128;2023-12-28T06:26:42;100980.06;;;3.51;71.52
83140;BME280;73027;54.208;19.128;2023-12-28T06:29:08;100972.41;;;3.42;71.89
83140;BME280;73027;54.208;19.128;2023-12-28T06:31:34;100957.97;;;3.46;72.44
83140;BME280;73027;54.208;19.128;2023-12-28T06:34:04;100963.94;;;3.55;72.19
83140;BME280;73027;54.208;19.128;2023-12-28T06:36:31;100952.88;;;3.61;72.02
83140;BME280;73027;54.208;19.128;2023-12-28T06:38:57;100957.94;;;3.59;71.83
83140;BME280;73027;54.208;19.128;2023-12-28T06:41:24;100940.13;;;3.58;72.11
83140;BME280;73027;54.208;19.128;2023-12-28T06:43:49;100950.28;;;3.64;72.20
83140;BME280;73027;54.208;19.128;2023-12-28T06:46:15;100933.31;;;3.66;71.91
83140;BME280;73027;54.208;19.128;2023-12-28T06:48:41;100930.78;;;3.66;71.72
83140;BME280;73027;54.208;19.128;2023-12-28T06:51:06;100943.53;;;3.48;71.86
83140;BME280;73027;54.208;19.128;2023-12-28T06:53:32;100928.25;;;3.48;72.74
83140;BME280;73027;54.208;19.128;2023-12-28T06:55:57;100923.16;;;3.54;72.67
83140;BME280;73027;54.208;19.128;2023-12-28T06:58:23;100922.31;;;3.62;72.63
83140;BME280;73027;54.208;19.128;2023-12-28T07:00:48;100918.09;;;3.55;72.56
83140;BME280;73027;54.208;19.128;2023-12-28T07:03:14;100936.75;;;3.48;72.40
83140;BME280;73027;54.208;19.128;2023-12-28T07:05:39;100930.88;;;3.28;73.00
83140;BME280;73027;54.208;19.128;2023-12-28T07:08:05;100931.72;;;3.31;73.64
83140;BME280;73027;54.208;19.128;2023-12-28T07:10:30;100939.34;;;3.31;73.88
83140;BME280;73027;54.208;19.128;2023-12-28T07:12:57;100954.59;;;3.28;73.91
83140;BME280;73027;54.208;19.128;2023-12-28T07:15:22;100950.38;;;3.26;74.55
83140;BME280;73027;54.208;19.128;2023-12-28T07:17:48;100957.19;;;3.16;74.52
83140;BME280;73027;54.208;19.128;2023-12-28T07:20:13;100955.47;;;3.06;75.04
83140;BME280;73027;54.208;19.128;2023-12-28T07:22:39;100960.56;;;3.08;75.36
83140;BME280;73027;54.208;19.128;2023-12-28T07:25:07;100957.19;;;3.19;75.22
83140;BME280;73027;54.208;19.128;2023-12-28T07:27:36;100965.63;;;3.29;74.96
83140;BME280;73027;54.208;19.128;2023-12-28T07:30:04;100956.31;;;3.31;74.89
83140;BME280;73027;54.208;19.128;2023-12-28T07:32:30;100969.88;;;3.34;74.66
83140;BME280;73027;54.208;19.128;2023-12-28T07:34:56;100980.03;;;3.48;74.01
83140;BME280;73027;54.208;19.128;2023-12-28T07:37:21;100969.03;;;3.46;73.83
83140;BME280;73027;54.208;19.128;2023-12-28T07:39:47;100963.91;;;3.48;74.22
83140;BME280;73027;54.208;19.128;2023-12-28T07:42:13;100972.41;;;3.42;73.93
83140;BME280;73027;54.208;19.128;2023-12-28T07:44:39;100972.44;;;3.39;74.20
83140;BME280;73027;54.208;19.128;2023-12-28T07:47:04;100974.97;;;3.47;74.09
83140;BME280;73027;54.208;19.128;2023-12-28T07:49:30;100967.31;;;3.51;74.40
83140;BME280;73027;54.208;19.128;2023-12-28T07:51:56;100969.03;;;3.55;73.98
83140;BME280;73027;54.208;19.128;2023-12-28T07:54:22;100973.22;;;3.68;74.39
83140;BME280;73027;54.208;19.128;2023-12-28T07:56:47;100989.34;;;3.69;73.44
83140;BME280;73027;54.208;19.128;2023-12-28T07:59:12;100991.06;;;3.70;73.32
83140;BME280;73027;54.208;19.128;2023-12-28T08:01:38;100986.81;;;3.69;73.29
83140;BME280;73027;54.208;19.128;2023-12-28T08:04:03;100985.97;;;3.70;72.86
83140;BME280;73027;54.208;19.128;2023-12-28T08:06:29;100980.03;;;3.69;73.13
83140;BME280;73027;54.208;19.128;2023-12-28T08:08:57;100990.19;;;3.71;73.01
83140;BME280;73027;54.208;19.128;2023-12-28T08:11:24;100976.63;;;3.70;72.72
83140;BME280;73027;54.208;19.128;2023-12-28T08:13:50;100976.59;;;3.72;72.84
83140;BME280;73027;54.208;19.128;2023-12-28T08:16:15;100964.72;;;3.68;73.00
83140;BME280;73027;54.208;19.128;2023-12-28T08:18:40;100959.66;;;3.57;73.08
83140;BME280;73027;54.208;19.128;2023-12-28T08:21:06;100961.38;;;3.54;73.37
83140;BME280;73027;54.208;19.128;2023-12-28T08:23:31;100960.53;;;3.50;73.67
83140;BME280;73027;54.208;19.128;2023-12-28T08:25:57;100969.88;;;3.51;74.40
83140;BME280;73027;54.208;19.128;2023-12-28T08:28:22;100969.00;;;3.57;74.36
83140;BME280;73027;54.208;19.128;2023-12-28T08:30:48;100965.59;;;3.58;74.06
83140;BME280;73027;54.208;19.128;2023-12-28T08:33:14;100956.28;;;3.52;73.70
83140;BME280;73027;54.208;19.128;2023-12-28T08:35:40;100982.56;;;3.63;73.63
83140;BME280;73027;54.208;19.128;2023-12-28T08:38:05;100969.03;;;3.55;73.71
83140;BME280;73027;54.208;19.128;2023-12-28T08:40:31;100979.19;;;3.61;74.09
83140;BME280;73027;54.208;19.128;2023-12-28T08:42:57;100986.81;;;3.70;73.92
83140;BME280;73027;54.208;19.128;2023-12-28T08:45:23;100995.28;;;3.77;73.67
83140;BME280;73027;54.208;19.128;2023-12-28T08:47:48;100980.00;;;3.77;73.57
83140;BME280;73027;54.208;19.128;2023-12-28T08:50:14;100986.78;;;3.72;73.57
83140;BME280;73027;54.208;19.128;2023-12-28T08:52:40;101007.16;;;3.79;73.81
83140;BME280;73027;54.208;19.128;2023-12-28T08:55:05;100975.75;;;3.68;73.79
83140;BME280;73027;54.208;19.128;2023-12-28T08:57:31;100995.28;;;3.80;74.14
83140;BME280;73027;54.208;19.128;2023-12-28T08:59:57;100996.94;;;3.90;74.28
83140;BME280;73027;54.208;19.128;2023-12-28T09:02:22;100987.56;;;3.98;73.69
83140;BME280;73027;54.208;19.128;2023-12-28T09:04:48;100999.41;;;4.16;73.77
83140;BME280;73027;54.208;19.128;2023-12-28T09:07:14;100976.50;;;4.13;72.93
83140;BME280;73027;54.208;19.128;2023-12-28T09:09:40;100987.47;;;4.27;73.58
83140;BME280;73027;54.208;19.128;2023-12-28T09:12:06;100994.28;;;4.28;72.99
83140;BME280;73027;54.208;19.128;2023-12-28T09:14:31;100996.84;;;4.23;73.09
83140;BME280;73027;54.208;19.128;2023-12-28T09:16:57;101001.06;;;4.23;73.62
83140;BME280;73027;54.208;19.128;2023-12-28T09:19:22;100987.47;;;4.24;73.65
83140;BME280;73027;54.208;19.128;2023-12-28T09:21:48;100996.00;;;4.24;73.21
83140;BME280;73027;54.208;19.128;2023-12-28T09:24:13;100984.16;;;4.05;73.91
83140;BME280;73027;54.208;19.128;2023-12-28T09:26:41;100999.41;;;4.16;73.59
83140;BME280;73027;54.208;19.128;2023-12-28T09:29:06;100991.75;;;4.14;74.71
83140;BME280;73027;54.208;19.128;2023-12-28T09:31:31;100993.44;;;4.20;74.71
83140;BME280;73027;54.208;19.128;2023-12-28T09:33:57;100995.13;;;4.24;74.79
83140;BME280;73027;54.208;19.128;2023-12-28T09:36:22;100988.31;;;4.26;74.57
83140;BME280;73027;54.208;19.128;2023-12-28T09:38:48;100977.22;;;4.33;74.89
83140;BME280;73027;54.208;19.128;2023-12-28T09:41:15;100985.66;;;4.44;74.75
83140;BME280;73027;54.208;19.128;2023-12-28T09:43:54;100968.63;;;4.55;74.72
83140;BME280;73027;54.208;19.128;2023-12-28T09:46:20;100978.81;;;4.57;74.85
83140;BME280;73027;54.208;19.128;2023-12-28T09:48:46;100971.13;;;4.60;74.49
83140;BME280;73027;54.208;19.128;2023-12-28T09:51:12;100971.13;;;4.61;74.92
83140;BME280;73027;54.208;19.128;2023-12-28T09:53:38;100970.19;;;4.73;74.78
83140;BME280;73027;54.208;19.128;2023-12-28T09:56:04;100976.16;;;4.73;74.60
83140;BME280;73027;54.208;19.128;2023-12-28T09:58:33;100979.50;;;4.82;74.94
83140;BME280;73027;54.208;19.128;2023-12-28T10:01:00;100979.41;;;4.92;74.70
83140;BME280;73027;54.208;19.128;2023-12-28T10:03:26;100976.84;;;4.97;74.44
83140;BME280;73027;54.208;19.128;2023-12-28T10:05:52;100975.16;;;4.93;74.81
83140;BME280;73027;54.208;19.128;2023-12-28T10:08:17;100972.59;;;4.96;74.95
83140;BME280;73027;54.208;19.128;2023-12-28T10:10:44;100965.00;;;4.88;75.49
83140;BME280;73027;54.208;19.128;2023-12-28T10:13:16;100963.34;;;4.81;75.79
83140;BME280;73027;54.208;19.128;2023-12-28T10:15:42;100948.03;;;4.79;76.22
83140;BME280;73027;54.208;19.128;2023-12-28T10:18:08;100946.28;;;4.89;76.50
83140;BME280;73027;54.208;19.128;2023-12-28T10:20:34;100946.22;;;4.97;76.32
83140;BME280;73027;54.208;19.128;2023-12-28T10:23:00;100940.19;;;5.02;76.16
83140;BME280;73027;54.208;19.128;2023-12-28T10:25:26;100929.94;;;5.08;76.34
83140;BME280;73027;54.208;19.128;2023-12-28T10:27:53;100930.69;;;5.18;76.58
83140;BME280;73027;54.208;19.128;2023-12-28T10:30:22;100930.63;;;5.25;76.34
83140;BME280;73027;54.208;19.128;2023-12-28T10:32:48;100934.00;;;5.31;76.02
83140;BME280;73027;54.208;19.128;2023-12-28T10:35:14;100932.31;;;5.26;75.31
83140;BME280;73027;54.208;19.128;2023-12-28T10:37:40;100931.44;;;5.31;75.78
83140;BME280;73027;54.208;19.128;2023-12-28T10:40:07;100950.06;;;5.43;75.96
83140;BME280;73027;54.208;19.128;2023-12-28T10:45:10;100962.59;;;5.64;75.31
83140;BME280;73027;54.208;19.128;2023-12-28T10:47:43;100963.47;;;5.63;75.21
83140;BME280;73027;54.208;19.128;2023-12-28T10:50:14;100968.44;;;5.75;75.25
83140;BME280;73027;54.208;19.128;2023-12-28T10:52:41;100983.72;;;5.86;75.41
83140;BME280;73027;54.208;19.128;2023-12-28T10:55:21;100962.38;;;5.90;75.27
83140;BME280;73027;54.208;19.128;2023-12-28T11:00:26;100984.75;;;5.67;75.09
83140;BME280;73027;54.208;19.128;2023-12-28T11:02:58;100978.78;;;5.66;76.52
83140;BME280;73027;54.208;19.128;2023-12-28T11:05:28;100960.00;;;5.69;76.25
83140;BME280;73027;54.208;19.128;2023-12-28T11:07:55;100954.97;;;5.61;76.51
83140;BME280;73027;54.208;19.128;2023-12-28T11:10:24;100949.03;;;5.59;76.98
83140;BME280;73027;54.208;19.128;2023-12-28T11:12:53;100955.91;;;5.56;77.11
83140;BME280;73027;54.208;19.128;2023-12-28T11:15:20;100959.31;;;5.53;77.37
83140;BME280;73027;54.208;19.128;2023-12-28T11:17:46;100955.81;;;5.62;77.23
83140;BME280;73027;54.208;19.128;2023-12-28T11:20:11;100937.84;;;5.69;77.33
83140;BME280;73027;54.208;19.128;2023-12-28T11:22:38;100948.75;;;5.85;77.10
83140;BME280;73027;54.208;19.128;2023-12-28T11:25:04;100938.94;;;6.22;76.26
83140;BME280;73027;54.208;19.128;2023-12-28T11:27:36;100932.28;;;6.72;75.10
83140;BME280;73027;54.208;19.128;2023-12-28T11:30:05;100946.00;;;6.67;73.97
83140;BME280;73027;54.208;19.128;2023-12-28T11:32:38;100951.25;;;6.57;74.09
83140;BME280;73027;54.208;19.128;2023-12-28T11:35:07;100954.97;;;6.36;74.58
83140;BME280;73027;54.208;19.128;2023-12-28T11:37:38;100950.06;;;6.18;75.33
83140;BME280;73027;54.208;19.128;2023-12-28T11:40:32;100946.00;;;6.03;75.68
83140;BME280;73027;54.208;19.128;2023-12-28T11:43:14;100936.66;;;6.01;77.01
83140;BME280;73027;54.208;19.128;2023-12-28T11:45:47;100949.44;;;6.01;77.11
83140;BME280;73027;54.208;19.128;2023-12-28T11:48:21;100947.78;;;5.97;77.53
83140;BME280;73027;54.208;19.128;2023-12-28T11:50:47;100940.97;;;5.97;77.95
83140;BME280;73027;54.208;19.128;2023-12-28T11:53:12;100934.09;;;6.01;77.92
83140;BME280;73027;54.208;19.128;2023-12-28T11:55:38;100923.78;;;6.10;78.31
83140;BME280;73027;54.208;19.128;2023-12-28T11:58:03;100908.34;;;6.16;77.23
83140;BME280;73027;54.208;19.128;2023-12-28T12:00:29;100909.94;;;6.23;77.20
83140;BME280;73027;54.208;19.128;2023-12-28T12:02:54;100916.72;;;6.27;77.55
83140;BME280;73027;54.208;19.128;2023-12-28T12:05:21;100915.06;;;6.25;77.59
83140;BME280;73027;54.208;19.128;2023-12-28T12:07:49;100928.69;;;6.25;77.16
83140;BME280;73027;54.208;19.128;2023-12-28T12:10:15;100929.53;;;6.24;77.45
83140;BME280;73027;54.208;19.128;2023-12-28T12:12:41;100923.59;;;6.23;77.47
83140;BME280;73027;54.208;19.128;2023-12-28T12:15:08;100930.41;;;6.25;77.08
83140;BME280;73027;54.208;19.128;2023-12-28T12:17:33;100932.00;;;6.32;77.83
83140;BME280;73027;54.208;19.128;2023-12-28T12:19:59;100914.94;;;6.31;77.11
83140;BME280;73027;54.208;19.128;2023-12-28T12:22:25;100913.06;;;6.45;77.53
83140;BME280;73027;54.208;19.128;2023-12-28T12:24:51;100903.41;;;6.60;77.47
83140;BME280;73027;54.208;19.128;2023-12-28T12:27:17;100892.06;;;6.78;76.17
83140;BME280;73027;54.208;19.128;2023-12-28T12:29:43;100892.75;;;6.88;76.12
83140;BME280;73027;54.208;19.128;2023-12-28T12:32:08;100900.47;;;6.86;75.82
83140;BME280;73027;54.208;19.128;2023-12-28T12:34:35;100907.22;;;6.90;76.09
83140;BME280;73027;54.208;19.128;2023-12-28T12:37:00;100898.09;;;6.74;74.78
83140;BME280;73027;54.208;19.128;2023-12-28T12:39:26;100909.00;;;6.85;75.68
83140;BME280;73027;54.208;19.128;2023-12-28T12:41:52;100911.56;;;6.85;75.75
83140;BME280;73027;54.208;19.128;2023-12-28T12:44:20;100911.56;;;6.87;75.38
83140;BME280;73027;54.208;19.128;2023-12-28T12:46:46;100916.56;;;6.93;76.23
83140;BME280;73027;54.208;19.128;2023-12-28T12:49:11;100919.06;;;6.97;75.74
83140;BME280;73027;54.208;19.128;2023-12-28T12:51:38;100910.59;;;6.92;75.29
83140;BME280;73027;54.208;19.128;2023-12-28T12:54:03;100913.16;;;6.94;74.78